Time;durP1;ratioP1;P1;durP2;ratioP2;P2;SDS_P1;SDS_P2;PMS_P1;PMS_P2;Temp;Humidity;BMP_temperature;BMP_pressure;BME280_temperature;BME280_humidity;BME280_pressure;Samples;Min_cycle;Max_cycle;Signal;HPM_P1;HPM_P2
2023/01/17 00:01:59;;;;;;;4.73;3.20;;;;;;;3.14;94.83;97472.47;4968215;28;20380;-81
2023/01/17 00:10:01;;;;;;;5.03;3.43;;;;;;;3.17;94.68;97451.44;4972503;28;20046;-81
2023/01/17 00:12:29;;;;;;;5.93;3.20;;;;;;;3.16;93.96;97462.81;4980510;28;20476;-81
2023/01/17 00:14:57;;;;;;;5.77;3.73;;;;;;;3.19;93.03;97454.00;4953200;28;20054;-81
2023/01/17 00:17:25;;;;;;;4.87;3.33;;;;;;;3.25;93.75;97454.59;4969511;28;20074;-82
2023/01/17 01:35:35;;;;;;;6.03;3.93;;;;;;;2.01;100.00;97390.97;4953179;28;20043;-79
2023/01/17 01:38:02;;;;;;;6.20;3.70;;;;;;;2.04;100.00;97385.69;4939148;28;20046;-80
2023/01/17 01:40:29;;;;;;;6.27;3.77;;;;;;;1.85;100.00;97385.53;4938975;28;20463;-81
2023/01/17 01:42:59;;;;;;;6.13;3.57;;;;;;;1.96;100.00;97380.75;4955703;28;20106;-80
2023/01/17 01:45:28;;;;;;;8.80;3.77;;;;;;;1.96;100.00;97382.53;4939562;28;20039;-81
2023/01/17 01:48:09;;;;;;;6.23;4.07;;;;;;;1.80;100.00;97389.22;4939757;28;20050;-82
2023/01/17 01:50:36;;;;;;;7.33;4.47;;;;;;;1.88;100.00;97380.22;4957095;28;20047;-81
2023/01/17 01:53:04;;;;;;;6.53;4.27;;;;;;;1.88;100.00;97384.56;4955744;28;20046;-82
2023/01/17 01:55:39;;;;;;;5.43;3.90;;;;;;;1.84;100.00;97383.81;4970709;28;20051;-81
2023/01/17 01:58:16;;;;;;;6.93;4.07;;;;;;;1.93;100.00;97377.41;4944521;28;20499;-81
2023/01/17 02:00:43;;;;;;;7.17;3.60;;;;;;;1.87;100.00;97378.50;4959005;28;20050;-82
2023/01/17 02:03:15;;;;;;;7.53;3.63;;;;;;;1.86;100.00;97375.97;5041436;23;20146;-81
2023/01/17 02:05:42;;;;;;;7.13;3.90;;;;;;;1.94;100.00;97366.13;4942761;28;21034;-78
2023/01/17 02:08:11;;;;;;;6.03;3.80;;;;;;;1.88;100.00;97376.75;4959040;28;20074;-79
2023/01/17 02:10:39;;;;;;;6.63;3.83;;;;;;;1.81;100.00;97363.13;4956784;28;20055;-80
2023/01/17 02:13:07;;;;;;;6.10;3.80;;;;;;;1.98;100.00;97357.28;4958561;28;20603;-80
2023/01/17 02:15:53;;;;;;;7.10;4.77;;;;;;;1.92;100.00;97357.50;4958421;28;20047;-81
2023/01/17 02:18:38;;;;;;;5.57;3.87;;;;;;;1.92;100.00;97360.94;4959778;28;20047;-80
2023/01/17 02:21:21;;;;;;;6.83;4.50;;;;;;;1.93;100.00;97362.66;4960833;28;20038;-80
2023/01/17 02:24:08;;;;;;;6.57;3.97;;;;;;;1.98;100.00;97349.47;5100420;23;20053;-80
2023/01/17 02:26:46;;;;;;;7.17;3.43;;;;;;;2.05;100.00;97350.91;5040421;28;20042;-81
2023/01/17 02:29:50;;;;;;;7.83;4.50;;;;;;;2.09;100.00;97347.28;4976246;28;20039;-82
2023/01/17 02:32:33;;;;;;;5.73;4.00;;;;;;;2.07;100.00;97346.50;4992860;28;20034;-83
2023/01/17 02:35:11;;;;;;;6.37;3.77;;;;;;;2.14;100.00;97340.13;4990112;28;20039;-83
2023/01/17 02:37:49;;;;;;;5.57;3.57;;;;;;;2.13;100.00;97341.06;4989561;28;20050;-81
2023/01/17 02:40:22;;;;;;;6.00;3.70;;;;;;;2.20;100.00;97339.91;4951712;28;20089;-81
2023/01/17 02:42:53;;;;;;;8.50;4.40;;;;;;;2.06;100.00;97334.38;4978789;28;20149;-82
2023/01/17 02:45:20;;;;;;;6.07;3.83;;;;;;;2.14;100.00;97332.31;4971033;28;20039;-81
2023/01/17 02:47:46;;;;;;;6.73;4.23;;;;;;;2.16;100.00;97337.47;4983472;28;20057;-81
2023/01/17 02:50:21;;;;;;;6.23;4.30;;;;;;;2.06;100.00;97333.53;4973427;28;20042;-82
2023/01/17 02:52:55;;;;;;;5.40;3.57;;;;;;;1.96;100.00;97344.31;4954298;28;20057;-82
2023/01/17 02:55:40;;;;;;;6.22;3.95;;;;;;;2.06;100.00;97344.81;4975174;28;20418;-81
2023/01/17 02:58:23;;;;;;;6.73;3.90;;;;;;;1.95;100.00;97350.44;4984549;28;20041;-81
2023/01/17 03:00:58;;;;;;;6.20;3.73;;;;;;;1.86;100.00;97344.75;4979115;28;20045;-82
2023/01/17 03:03:40;;;;;;;6.40;3.70;;;;;;;1.84;100.00;97339.56;4998512;28;20038;-82
2023/01/17 03:06:14;;;;;;;6.27;3.77;;;;;;;2.00;100.00;97345.03;4989715;28;20069;-81
2023/01/17 03:08:42;;;;;;;7.25;4.50;;;;;;;2.08;100.00;97342.97;4971330;28;20062;-82
2023/01/17 03:11:11;;;;;;;6.30;3.77;;;;;;;2.08;100.00;97347.34;4985704;28;20045;-82
2023/01/17 03:13:37;;;;;;;6.83;3.50;;;;;;;2.05;100.00;97342.25;4972076;28;20042;-81
2023/01/17 03:16:10;;;;;;;5.80;4.23;;;;;;;2.04;100.00;97337.97;4974386;28;20100;-81
2023/01/17 03:18:38;;;;;;;6.70;4.00;;;;;;;2.04;100.00;97337.97;4975272;28;20179;-82
2023/01/17 03:21:04;;;;;;;6.60;3.60;;;;;;;2.10;100.00;97327.28;4958949;28;20435;-81
2023/01/17 03:23:31;;;;;;;4.40;3.17;;;;;;;2.15;100.00;97333.16;4959313;28;20047;-81
2023/01/17 03:25:58;;;;;;;6.57;3.87;;;;;;;2.05;100.00;97332.69;4985858;28;20042;-80
2023/01/17 03:28:24;;;;;;;6.53;3.83;;;;;;;2.07;100.00;97346.50;4979617;28;20081;-79
2023/01/17 03:30:51;;;;;;;6.47;3.80;;;;;;;2.26;100.00;97333.56;4962777;28;20116;-80
2023/01/17 03:33:18;;;;;;;6.17;3.60;;;;;;;2.20;100.00;97334.69;4988411;28;20081;-80
2023/01/17 03:35:45;;;;;;;6.97;3.53;;;;;;;2.20;100.00;97334.69;4982301;28;20034;-80
2023/01/17 03:38:11;;;;;;;4.70;3.43;;;;;;;2.23;100.00;97333.72;4970786;28;20104;-81
2023/01/17 03:40:38;;;;;;;4.90;3.53;;;;;;;2.12;100.00;97336.75;5016543;28;20039;-83
2023/01/17 03:43:05;;;;;;;5.87;4.37;;;;;;;2.14;100.00;97336.69;4973489;28;20484;-81
2023/01/17 03:45:31;;;;;;;5.63;3.80;;;;;;;2.16;100.00;97335.72;4969827;28;20093;-81
2023/01/17 03:47:58;;;;;;;6.37;3.87;;;;;;;2.18;100.00;97327.81;4973490;28;20101;-81
2023/01/17 03:50:25;;;;;;;5.63;3.90;;;;;;;2.27;100.00;97332.69;4970843;28;20039;-81
2023/01/17 03:52:51;;;;;;;5.17;3.43;;;;;;;2.24;100.00;97328.44;4973029;28;20451;-82
2023/01/17 03:55:18;;;;;;;5.80;3.20;;;;;;;2.34;100.00;97325.44;4993784;28;20050;-82
2023/01/17 03:57:45;;;;;;;5.37;3.30;;;;;;;2.31;100.00;97323.00;4989719;28;20034;-82
2023/01/17 04:00:12;;;;;;;4.70;3.00;;;;;;;2.28;100.00;97325.72;4991433;28;20045;-82
2023/01/17 04:02:38;;;;;;;4.83;3.40;;;;;;;2.25;100.00;97337.94;4974538;28;20142;-81
2023/01/17 04:05:05;;;;;;;7.10;3.30;;;;;;;2.32;100.00;97327.28;4977742;28;20050;-82
2023/01/17 04:07:32;;;;;;;4.97;2.97;;;;;;;2.22;100.00;97332.88;4977144;28;20137;-82
2023/01/17 04:09:59;;;;;;;4.07;2.77;;;;;;;2.17;100.00;97333.94;4973654;28;20046;-82
2023/01/17 04:12:25;;;;;;;6.30;3.43;;;;;;;2.20;100.00;97326.03;4968995;28;20054;-82
2023/01/17 04:14:52;;;;;;;4.00;2.70;;;;;;;2.19;100.00;97330.41;4960081;28;20034;-82
2023/01/17 04:17:19;;;;;;;4.77;3.07;;;;;;;2.38;100.00;97327.88;4975064;28;20085;-82
2023/01/17 04:19:46;;;;;;;5.17;3.40;;;;;;;2.28;100.00;97334.38;4977276;28;20731;-82
2023/01/17 04:22:12;;;;;;;4.77;2.97;;;;;;;2.35;100.00;97330.59;4977440;28;20049;-81
2023/01/17 04:24:39;;;;;;;4.07;2.83;;;;;;;2.32;100.00;97324.69;4977441;28;20042;-81
2023/01/17 04:27:06;;;;;;;4.30;2.90;;;;;;;2.25;100.00;97324.91;4993243;28;20034;-80
2023/01/17 04:29:32;;;;;;;4.40;2.70;;;;;;;2.48;100.00;97325.75;4994013;28;20048;-82
2023/01/17 04:31:59;;;;;;;4.97;3.37;;;;;;;2.51;100.00;97318.63;5013189;28;20044;-82
2023/01/17 04:34:26;;;;;;;3.87;2.53;;;;;;;2.64;100.00;97318.13;4977758;28;20058;-83
2023/01/17 04:36:52;;;;;;;4.23;2.63;;;;;;;2.63;100.00;97317.28;4959621;28;20039;-82
2023/01/17 04:39:19;;;;;;;3.90;2.90;;;;;;;2.60;100.00;97324.38;4967639;28;20410;-82
2023/01/17 04:41:46;;;;;;;3.13;2.30;;;;;;;2.53;100.00;97319.44;4960087;28;20054;-81
2023/01/17 04:44:12;;;;;;;3.53;2.30;;;;;;;2.54;100.00;97323.75;4968968;28;20142;-82
2023/01/17 04:46:39;;;;;;;3.93;2.60;;;;;;;2.51;100.00;97326.44;4974645;28;20042;-82
2023/01/17 04:49:06;;;;;;;3.30;2.40;;;;;;;2.60;100.00;97319.16;4995752;28;20042;-81
2023/01/17 04:51:32;;;;;;;3.80;2.47;;;;;;;2.61;100.00;97316.53;4959256;28;20539;-83
2023/01/17 04:53:59;;;;;;;3.40;2.60;;;;;;;2.60;100.00;97327.81;4954227;28;20046;-82
2023/01/17 04:56:26;;;;;;;3.10;2.23;;;;;;;2.52;100.00;97328.19;4989939;28;20046;-81
2023/01/17 04:58:55;;;;;;;3.93;2.20;;;;;;;2.59;100.00;97325.28;5000722;28;20035;-82
2023/01/17 05:01:22;;;;;;;3.93;3.20;;;;;;;2.57;100.00;97332.34;4956227;28;20097;-81
2023/01/17 05:03:49;;;;;;;2.70;2.30;;;;;;;2.63;100.00;97342.50;4988831;28;20042;-81
2023/01/17 05:06:16;;;;;;;3.87;2.83;;;;;;;2.70;100.00;97347.41;4991277;28;20407;-82
2023/01/17 05:08:42;;;;;;;3.00;1.90;;;;;;;2.72;100.00;97342.97;4958235;28;20042;-81
2023/01/17 05:11:09;;;;;;;3.23;1.93;;;;;;;2.68;100.00;97336.19;4976090;28;20517;-81
2023/01/17 05:13:36;;;;;;;4.97;2.20;;;;;;;2.67;100.00;97349.28;4959775;28;20051;-82
2023/01/17 05:16:03;;;;;;;2.77;1.80;;;;;;;2.77;100.00;97353.19;4971324;28;21718;-82
2023/01/17 05:18:29;;;;;;;2.87;1.83;;;;;;;2.73;100.00;97341.22;4958018;28;20042;-82
2023/01/17 05:21:03;;;;;;;3.80;2.20;;;;;;;2.80;100.00;97356.53;4977178;28;20038;-82
2023/01/17 05:23:29;;;;;;;2.80;2.00;;;;;;;2.83;100.00;97353.78;4965782;28;20046;-83
2023/01/17 05:25:56;;;;;;;3.20;2.50;;;;;;;2.87;100.00;97353.66;4961403;28;20093;-81
2023/01/17 05:28:23;;;;;;;3.33;2.13;;;;;;;2.90;100.00;97354.38;4990691;28;20108;-82
2023/01/17 05:30:53;;;;;;;2.80;1.90;;;;;;;2.94;100.00;97360.28;4989383;28;20455;-82
2023/01/17 05:33:19;;;;;;;2.60;1.90;;;;;;;3.02;100.00;97361.66;4956828;28;20516;-82
2023/01/17 05:35:46;;;;;;;2.60;2.07;;;;;;;2.97;100.00;97368.84;4976680;28;20085;-82
2023/01/17 05:38:13;;;;;;;3.27;1.97;;;;;;;3.01;100.00;97362.56;4968216;28;20039;-82
2023/01/17 05:40:39;;;;;;;2.57;1.60;;;;;;;2.97;100.00;97366.25;4974291;28;20085;-81
2023/01/17 05:43:08;;;;;;;2.57;1.80;;;;;;;2.99;100.00;97358.34;5000087;28;20046;-81
2023/01/17 05:45:35;;;;;;;2.23;1.70;;;;;;;3.12;100.00;97363.91;4968159;28;20047;-81
2023/01/17 05:48:02;;;;;;;2.40;1.50;;;;;;;3.13;100.00;97371.66;4975024;28;20073;-81
2023/01/17 05:50:32;;;;;;;2.50;1.40;;;;;;;3.08;100.00;97371.00;4977319;28;20034;-82
2023/01/17 05:53:00;;;;;;;3.17;1.27;;;;;;;3.04;100.00;97382.47;4989617;28;20666;-82
2023/01/17 05:55:28;;;;;;;2.20;1.43;;;;;;;3.10;100.00;97379.59;4973424;28;20042;-82
2023/01/17 05:57:55;;;;;;;2.03;1.33;;;;;;;3.15;100.00;97382.84;4970692;28;20120;-82
2023/01/17 06:00:22;;;;;;;1.67;1.40;;;;;;;3.23;100.00;97377.31;4986734;28;20031;-81
2023/01/17 06:02:51;;;;;;;2.93;2.07;;;;;;;3.31;100.00;97388.25;4956126;28;20502;-81
2023/01/17 06:05:20;;;;;;;1.73;1.30;;;;;;;3.26;100.00;97387.59;4954520;28;20133;-82
2023/01/17 06:07:46;;;;;;;2.50;1.50;;;;;;;3.21;100.00;97390.44;5003425;28;20496;-82
2023/01/17 06:10:14;;;;;;;1.73;1.30;;;;;;;3.20;100.00;97393.09;4987490;28;20506;-81
2023/01/17 06:12:42;;;;;;;1.67;1.53;;;;;;;3.16;100.00;97394.13;4989941;28;20053;-81
2023/01/17 06:15:09;;;;;;;2.07;1.50;;;;;;;3.25;100.00;97391.13;4958126;28;20593;-83
2023/01/17 06:17:36;;;;;;;1.73;1.07;;;;;;;3.24;100.00;97398.09;4985634;28;20133;-82
2023/01/17 06:20:05;;;;;;;2.80;1.40;;;;;;;3.34;100.00;97402.00;4956475;28;20043;-82
2023/01/17 06:22:32;;;;;;;1.97;1.50;;;;;;;3.44;100.00;97402.44;4969121;28;20050;-81
2023/01/17 06:24:59;;;;;;;2.23;1.50;;;;;;;3.41;100.00;97405.19;4972713;28;20057;-82
2023/01/17 06:27:26;;;;;;;2.73;1.60;;;;;;;3.42;100.00;97406.06;4968933;28;20039;-81
2023/01/17 06:29:53;;;;;;;1.83;1.27;;;;;;;3.32;100.00;97401.22;4968943;28;20062;-82
2023/01/17 06:32:19;;;;;;;2.13;1.50;;;;;;;3.45;100.00;97398.94;4997448;28;20042;-81
2023/01/17 06:34:46;;;;;;;1.97;1.20;;;;;;;3.42;100.00;97399.06;4996339;28;20077;-82
2023/01/17 06:37:12;;;;;;;1.70;1.40;;;;;;;3.57;100.00;97393.19;4971615;28;20050;-83
2023/01/17 06:39:39;;;;;;;1.87;1.47;;;;;;;3.50;100.00;97399.56;4951772;28;20050;-83
2023/01/17 06:42:06;;;;;;;1.57;1.33;;;;;;;3.50;100.00;97406.56;4998985;28;20096;-80
2023/01/17 06:44:32;;;;;;;1.90;1.40;;;;;;;3.49;100.00;97410.09;4990194;28;20042;-82
2023/01/17 06:46:59;;;;;;;2.90;1.60;;;;;;;3.48;100.00;97413.63;4963078;28;20034;-81
2023/01/17 06:49:26;;;;;;;1.73;1.20;;;;;;;3.50;100.00;97414.41;4974065;28;20097;-81
2023/01/17 06:51:52;;;;;;;1.40;1.20;;;;;;;3.49;100.00;97413.53;4973273;28;20104;-82
2023/01/17 06:54:19;;;;;;;2.33;1.57;;;;;;;3.46;100.00;97423.28;4955306;28;20101;-81
2023/01/17 06:56:45;;;;;;;2.33;1.43;;;;;;;3.48;100.00;97430.13;4971647;28;20039;-81
2023/01/17 06:59:12;;;;;;;2.60;1.70;;;;;;;3.47;100.00;97428.44;4990477;28;21804;-82
2023/01/17 07:01:40;;;;;;;2.40;1.43;;;;;;;3.38;100.00;97432.28;4991011;28;20053;-81
2023/01/17 07:04:07;;;;;;;3.10;1.60;;;;;;;3.47;100.00;97432.81;4974812;28;20121;-81
2023/01/17 07:06:36;;;;;;;1.93;1.50;;;;;;;3.56;100.00;97425.41;4990680;28;20038;-81
2023/01/17 07:09:03;;;;;;;2.73;1.80;;;;;;;3.63;100.00;97439.91;4971734;28;20057;-80
2023/01/17 07:11:30;;;;;;;2.40;1.57;;;;;;;3.57;100.00;97436.69;4987416;28;20511;-81
2023/01/17 07:13:57;;;;;;;2.07;1.50;;;;;;;3.48;100.00;97442.31;4971999;28;20054;-82
2023/01/17 07:16:24;;;;;;;4.23;2.13;;;;;;;3.39;100.00;97448.78;4970002;28;20101;-80
2023/01/17 07:18:52;;;;;;;3.77;1.80;;;;;;;3.52;100.00;97456.91;4955474;28;20046;-82
2023/01/17 07:21:18;;;;;;;2.30;1.77;;;;;;;3.56;100.00;97458.50;4969117;28;20050;-82
2023/01/17 07:23:46;;;;;;;2.33;1.60;;;;;;;3.59;100.00;97468.78;4955851;28;20046;-81
2023/01/17 07:26:15;;;;;;;2.90;2.00;;;;;;;3.59;100.00;97474.00;4971706;28;20061;-82
2023/01/17 07:28:42;;;;;;;2.77;1.70;;;;;;;3.58;100.00;97467.94;4966207;28;20038;-81
2023/01/17 07:31:09;;;;;;;2.20;1.50;;;;;;;3.55;100.00;97477.69;4972866;28;20671;-81
2023/01/17 07:33:36;;;;;;;1.80;1.30;;;;;;;3.55;100.00;97482.91;4974216;28;20484;-82
2023/01/17 07:36:08;;;;;;;1.83;1.10;;;;;;;3.53;100.00;97469.06;4981286;28;20042;-81
2023/01/17 07:38:34;;;;;;;1.30;1.20;;;;;;;3.45;100.00;97485.06;4982150;28;20073;-81
2023/01/17 07:41:01;;;;;;;2.43;1.53;;;;;;;3.49;100.00;97486.63;4969304;28;20113;-84
2023/01/17 07:43:28;;;;;;;1.70;1.43;;;;;;;3.50;100.00;97492.69;4988800;28;20057;-81
2023/01/17 07:45:54;;;;;;;2.10;1.60;;;;;;;3.51;100.00;97492.63;4984495;28;20050;-82
2023/01/17 07:48:22;;;;;;;2.43;1.50;;;;;;;3.50;100.00;97495.28;4970694;28;20407;-81
2023/01/17 07:50:54;;;;;;;1.97;1.50;;;;;;;3.49;100.00;97486.63;4973312;28;20092;-81
2023/01/17 07:53:22;;;;;;;2.77;1.70;;;;;;;3.46;100.00;97486.75;4988473;28;20093;-82
2023/01/17 07:55:49;;;;;;;2.37;1.60;;;;;;;3.51;100.00;97479.56;4982340;28;20038;-81
2023/01/17 07:58:15;;;;;;;3.40;2.10;;;;;;;3.56;100.00;97477.63;4970004;28;20072;-82
2023/01/17 08:00:43;;;;;;;2.60;1.73;;;;;;;3.50;100.00;97480.47;4972945;28;20097;-81
2023/01/17 08:03:13;;;;;;;3.40;1.90;;;;;;;3.42;100.00;97486.94;5032516;22;20049;-81
2023/01/17 08:05:41;;;;;;;2.60;1.70;;;;;;;3.44;100.00;97490.31;4955261;28;20046;-82
2023/01/17 08:08:07;;;;;;;2.23;1.63;;;;;;;3.52;100.00;97498.69;4954874;28;20068;-83
2023/01/17 08:10:34;;;;;;;2.33;1.60;;;;;;;3.56;100.00;97503.72;4951888;28;20057;-81
2023/01/17 08:13:01;;;;;;;1.97;1.57;;;;;;;3.55;100.00;97511.63;4970927;28;20046;-82
2023/01/17 08:15:28;;;;;;;1.90;1.70;;;;;;;3.60;100.00;97505.28;4955116;28;20054;-85
2023/01/17 08:17:56;;;;;;;2.20;1.53;;;;;;;3.67;100.00;97500.63;4971453;28;20043;-84
2023/01/17 08:20:23;;;;;;;1.80;1.40;;;;;;;3.70;100.00;97510.97;4971323;28;20493;-87
2023/01/17 08:22:54;;;;;;;2.50;1.67;;;;;;;3.67;100.00;97511.94;4955909;28;20094;-87
2023/01/17 08:25:22;;;;;;;2.23;1.60;;;;;;;3.62;100.00;97515.66;4971257;28;20039;-86
2023/01/17 08:27:50;;;;;;;1.97;1.50;;;;;;;3.62;100.00;97513.91;4939569;28;20057;-86
2023/01/17 08:30:17;;;;;;;2.20;1.43;;;;;;;3.78;100.00;97519.28;4954882;28;20089;-85
2023/01/17 08:32:44;;;;;;;2.00;1.80;;;;;;;3.68;100.00;97524.06;4971098;28;20049;-84
2023/01/17 08:35:10;;;;;;;1.97;1.30;;;;;;;3.74;100.00;97519.50;4955222;28;20114;-83
2023/01/17 08:37:37;;;;;;;2.00;1.67;;;;;;;3.87;100.00;97524.13;4971207;28;20467;-87
2023/01/17 08:40:05;;;;;;;3.03;1.57;;;;;;;3.85;100.00;97528.56;4956669;28;20488;-83
2023/01/17 08:42:38;;;;;;;2.13;1.27;;;;;;;3.86;100.00;97522.41;4958681;28;20486;-83
2023/01/17 08:45:06;;;;;;;2.13;1.50;;;;;;;3.89;100.00;97522.31;4943034;28;20043;-83
2023/01/17 08:47:33;;;;;;;2.53;1.80;;;;;;;3.87;100.00;97525.91;4958286;28;20554;-85
2023/01/17 08:50:00;;;;;;;2.30;1.33;;;;;;;3.98;100.00;97531.50;4954392;29;20047;-85
2023/01/17 08:52:27;;;;;;;2.40;1.53;;;;;;;4.04;100.00;97535.63;4924014;29;20070;-83
2023/01/17 08:54:54;;;;;;;2.00;1.43;;;;;;;4.04;100.00;97533.00;4939717;29;20497;-87
2023/01/17 08:57:21;;;;;;;2.07;1.47;;;;;;;4.06;100.00;97541.59;4940196;29;20070;-84
2023/01/17 08:59:47;;;;;;;1.90;1.30;;;;;;;4.09;100.00;97538.84;4923995;29;20047;-82
2023/01/17 09:02:15;;;;;;;2.10;1.57;;;;;;;4.12;100.00;97549.16;4935976;28;20575;-87
2023/01/17 09:04:46;;;;;;;3.40;1.17;;;;;;;4.10;100.00;97554.44;4948975;28;20051;-89
2023/01/17 09:07:13;;;;;;;2.20;1.33;;;;;;;4.13;100.00;97561.31;4957746;28;20101;-84
2023/01/17 09:09:40;;;;;;;2.23;1.40;;;;;;;4.03;100.00;97562.63;4974248;28;20046;-87
2023/01/17 09:12:08;;;;;;;3.27;1.60;;;;;;;4.23;100.00;97566.06;4974108;28;20093;-85
2023/01/17 09:14:36;;;;;;;2.30;1.53;;;;;;;4.23;100.00;97566.06;4943042;28;20042;-84
2023/01/17 09:17:05;;;;;;;1.93;1.23;;;;;;;4.20;100.00;97573.19;4974287;28;20125;-84
2023/01/17 09:19:32;;;;;;;2.10;1.50;;;;;;;4.20;100.00;97581.91;4958453;28;20097;-84
2023/01/17 09:21:58;;;;;;;1.97;1.30;;;;;;;4.12;100.00;97583.13;4957975;28;20512;-87
2023/01/17 09:24:25;;;;;;;2.73;1.53;;;;;;;4.17;100.00;97578.56;4942215;28;20050;-84
2023/01/17 09:26:52;;;;;;;1.53;1.20;;;;;;;4.22;100.00;97580.06;4957465;28;20051;-81
2023/01/17 09:29:18;;;;;;;1.57;1.30;;;;;;;4.26;100.00;97591.22;4973781;28;20039;-82
2023/01/17 09:31:46;;;;;;;1.50;1.10;;;;;;;4.26;100.00;97595.59;4957876;28;20035;-85
2023/01/17 09:34:13;;;;;;;2.07;1.23;;;;;;;4.30;100.00;97607.63;4942573;28;20097;-84
2023/01/17 09:36:40;;;;;;;3.20;1.13;;;;;;;4.19;100.00;97608.06;4954495;29;20437;-82
2023/01/17 09:39:09;;;;;;;1.60;1.00;;;;;;;4.15;100.00;97601.28;4954312;28;20043;-85
2023/01/17 09:41:45;;;;;;;1.23;1.00;;;;;;;4.17;100.00;97612.50;4970776;28;20098;-84
2023/01/17 09:44:38;;;;;;;1.17;1.07;;;;;;;4.16;100.00;97616.03;4954291;29;20047;-84
2023/01/17 09:47:16;;;;;;;1.20;1.00;;;;;;;4.11;100.00;97618.84;4954081;29;20046;-85
2023/01/17 09:49:44;;;;;;;1.67;1.00;;;;;;;4.16;100.00;97619.50;4932043;28;20075;-84
2023/01/17 09:52:17;;;;;;;1.33;1.00;;;;;;;4.13;100.00;97617.03;4973203;28;20054;-85
2023/01/17 09:54:46;;;;;;;1.13;0.90;;;;;;;4.13;100.00;97619.66;4941380;28;20043;-84
2023/01/17 09:57:38;;;;;;;1.70;1.10;;;;;;;4.10;100.00;97619.75;4941268;28;20050;-83
2023/01/17 10:00:08;;;;;;;1.33;1.10;;;;;;;4.11;100.00;97625.84;4951221;29;20130;-83
2023/01/17 10:02:40;;;;;;;1.57;1.00;;;;;;;4.03;100.00;97625.31;4955926;28;20047;-84
2023/01/17 10:05:17;;;;;;;1.40;0.80;;;;;;;3.99;100.00;97632.44;4973005;28;20066;-84
2023/01/17 10:08:02;;;;;;;1.50;1.10;;;;;;;4.10;100.00;97642.44;4937718;29;20054;-88
2023/01/17 10:10:41;;;;;;;1.10;1.00;;;;;;;4.14;100.00;97652.69;4953810;29;20493;-90
2023/01/17 10:13:30;;;;;;;1.53;1.00;;;;;;;4.16;100.00;97657.84;4953844;28;20054;-83
2023/01/17 10:16:19;;;;;;;1.00;0.70;;;;;;;4.11;100.00;97672.84;4938178;29;20493;-83
2023/01/17 10:19:04;;;;;;;1.30;0.93;;;;;;;4.03;100.00;97669.72;4926789;29;20114;-83
2023/01/17 10:21:48;;;;;;;1.10;0.70;;;;;;;3.84;100.00;97678.31;4925738;28;20066;-82
2023/01/17 10:24:36;;;;;;;1.43;0.83;;;;;;;4.02;100.00;97683.69;4957266;28;20476;-81
2023/01/17 10:27:14;;;;;;;1.37;1.00;;;;;;;4.00;100.00;97693.38;4972312;28;20782;-82
2023/01/17 10:29:42;;;;;;;0.97;0.60;;;;;;;4.10;100.00;97700.75;4940598;28;20554;-85
2023/01/17 10:32:10;;;;;;;0.90;0.80;;;;;;;4.12;100.00;97705.91;4955937;28;20515;-82
2023/01/17 10:34:43;;;;;;;2.10;0.80;;;;;;;4.14;100.00;97701.50;4928220;29;20065;-82
2023/01/17 10:37:16;;;;;;;2.80;0.90;;;;;;;4.23;100.00;97707.19;4936601;29;20055;-83
2023/01/17 10:39:46;;;;;;;2.10;0.80;;;;;;;4.26;100.00;97703.56;4937003;29;20035;-85
2023/01/17 10:42:20;;;;;;;1.97;1.00;;;;;;;4.35;100.00;97711.03;4936624;29;20106;-86
2023/01/17 10:44:58;;;;;;;0.93;0.80;;;;;;;4.36;100.00;97706.63;4948522;28;20149;-85
2023/01/17 10:47:27;;;;;;;1.00;0.80;;;;;;;4.24;100.00;97714.09;4971308;28;20039;-84
2023/01/17 10:49:56;;;;;;;1.07;0.70;;;;;;;4.29;100.00;97719.16;4938245;28;20082;-84
2023/01/17 10:52:30;;;;;;;0.83;0.80;;;;;;;4.36;100.00;97725.78;4955458;28;20114;-83
2023/01/17 10:55:15;;;;;;;0.50;0.50;;;;;;;4.31;100.00;97722.53;4955070;28;20038;-83
2023/01/17 10:57:43;;;;;;;0.70;0.57;;;;;;;4.32;100.00;97728.59;4936587;29;20040;-83
2023/01/17 11:00:42;;;;;;;1.03;0.57;;;;;;;4.25;100.00;97735.84;4936878;29;20043;-83
2023/01/17 11:03:11;;;;;;;0.90;0.50;;;;;;;4.37;100.00;97714.44;4963662;28;20066;-84
2023/01/17 11:05:39;;;;;;;1.50;0.53;;;;;;;4.37;100.00;97730.13;4955433;28;20047;-83
2023/01/17 11:08:13;;;;;;;2.40;0.70;;;;;;;4.37;100.00;97722.28;4967883;28;20047;-82
2023/01/17 11:10:46;;;;;;;0.98;0.60;;;;;;;4.46;100.00;97724.50;4964456;28;20043;-83
2023/01/17 11:13:30;;;;;;;1.00;0.70;;;;;;;4.44;100.00;97723.69;4941036;28;20050;-83
2023/01/17 11:15:59;;;;;;;1.17;0.70;;;;;;;4.44;100.00;97730.69;4954861;28;20038;-84
2023/01/17 11:18:29;;;;;;;1.50;0.60;;;;;;;4.43;100.00;97727.22;4940449;28;20046;-85
2023/01/17 11:21:13;;;;;;;0.60;0.60;;;;;;;4.45;100.00;97720.16;4968249;28;20111;-84
2023/01/17 11:23:43;;;;;;;1.93;1.07;;;;;;;4.49;100.00;97729.59;4945882;28;20049;-84
2023/01/17 11:26:19;;;;;;;1.53;0.60;;;;;;;4.58;100.00;97720.50;4956061;28;20043;-85
2023/01/17 11:28:45;;;;;;;0.50;0.50;;;;;;;4.49;100.00;97729.59;4955833;28;20090;-83
2023/01/17 11:31:15;;;;;;;1.80;0.60;;;;;;;4.49;100.00;97732.19;4959941;28;20488;-86
2023/01/17 11:33:46;;;;;;;0.80;0.80;;;;;;;4.46;100.00;97741.94;4970990;28;20526;-85
2023/01/17 11:36:18;;;;;;;1.17;0.80;;;;;;;4.55;100.00;97738.09;4937392;28;20053;-84
2023/01/17 11:38:57;;;;;;;1.57;0.70;;;;;;;4.44;100.00;97742.00;4939887;28;20051;-84
2023/01/17 11:41:26;;;;;;;16.47;9.80;;;;;;;4.33;100.00;97748.59;4968641;28;20043;-84
2023/01/17 11:43:57;;;;;;;3.03;2.33;;;;;;;4.37;100.00;97761.50;4955103;28;20046;-85
2023/01/17 11:46:26;;;;;;;1.07;0.90;;;;;;;4.39;100.00;97761.41;4937427;28;20046;-87
2023/01/17 11:48:58;;;;;;;2.07;0.83;;;;;;;4.41;100.00;97759.59;4987461;28;20459;-84
2023/01/17 11:51:30;;;;;;;1.07;0.90;;;;;;;4.45;100.00;97766.38;4971730;28;20078;-87
2023/01/17 11:54:20;;;;;;;1.87;1.17;;;;;;;4.40;100.00;97763.97;4935879;29;20039;-86
2023/01/17 11:56:47;;;;;;;5.70;3.33;;;;;;;4.44;100.00;97768.13;4930959;28;20109;-84
2023/01/17 11:59:30;;;;;;;1.77;0.83;;;;;;;4.46;100.00;97768.94;4939448;28;20051;-85
2023/01/17 12:02:00;;;;;;;1.07;1.00;;;;;;;4.42;99.52;97769.13;4965636;28;20035;-84
2023/01/17 12:04:36;;;;;;;0.90;0.70;;;;;;;4.38;100.00;97780.63;4989021;28;20054;-83
2023/01/17 12:07:38;;;;;;;1.13;0.80;;;;;;;4.40;100.00;97778.78;4950155;28;20039;-83
2023/01/17 12:10:16;;;;;;;3.20;2.80;;;;;;;4.38;100.00;97788.47;4956000;28;20050;-83
2023/01/17 12:19:17;;;;;;;2.00;1.33;;;;;;;4.28;100.00;97797.56;4975248;28;20046;-85
2023/01/17 12:22:13;;;;;;;1.70;1.20;;;;;;;4.29;100.00;97797.53;4957803;28;20051;-86
2023/01/17 12:24:44;;;;;;;2.03;1.17;;;;;;;4.35;100.00;97797.28;4965700;28;20058;-84
2023/01/17 12:27:33;;;;;;;2.33;1.40;;;;;;;4.26;100.00;97799.41;4975156;28;20042;-84
2023/01/17 12:30:21;;;;;;;1.70;1.00;;;;;;;4.28;100.00;97805.41;4959013;28;20836;-83
2023/01/17 12:33:03;;;;;;;3.33;1.10;;;;;;;4.19;100.00;97811.88;4939623;29;20106;-85
2023/01/17 12:35:40;;;;;;;1.30;1.10;;;;;;;4.24;100.00;97817.78;4958964;28;20051;-87
2023/01/17 12:38:17;;;;;;;4.03;1.30;;;;;;;4.15;100.00;97828.59;4958522;28;20046;-84
2023/01/17 12:41:15;;;;;;;0.80;0.70;;;;;;;4.15;100.00;97836.44;4974547;28;20138;-83
2023/01/17 12:43:43;;;;;;;2.15;1.60;;;;;;;4.08;100.00;97848.03;4974636;28;20042;-84
2023/01/17 12:46:25;;;;;;;1.57;0.83;;;;;;;3.85;100.00;97849.78;4942654;28;20051;-84
2023/01/17 12:49:20;;;;;;;2.40;1.30;;;;;;;3.72;100.00;97845.09;4958297;28;20695;-81
2023/01/17 12:51:52;;;;;;;1.60;0.88;;;;;;;3.66;100.00;97860.06;4941920;28;20051;-83
2023/01/17 12:54:34;;;;;;;1.70;0.90;;;;;;;3.61;100.00;97864.59;4942738;28;20070;-82
2023/01/17 12:57:05;;;;;;;0.97;0.87;;;;;;;3.49;100.00;97870.28;4974810;28;20492;-83
2023/01/17 12:59:38;;;;;;;2.70;1.70;;;;;;;3.38;100.00;97875.06;4959020;28;20051;-82
2023/01/17 13:02:30;;;;;;;2.73;1.30;;;;;;;3.42;100.00;97876.63;4974740;28;20047;-84
2023/01/17 13:05:11;;;;;;;2.83;1.63;;;;;;;3.45;100.00;97884.38;4936888;28;20527;-81
2023/01/17 13:07:44;;;;;;;2.37;1.67;;;;;;;3.44;100.00;97882.63;4958936;28;20491;-82
2023/01/17 13:10:23;;;;;;;2.88;1.20;;;;;;;3.45;100.00;97883.47;4974438;28;20458;-81
2023/01/17 13:12:51;;;;;;;2.50;1.40;;;;;;;3.43;100.00;97887.91;4958129;28;20097;-82
2023/01/17 13:15:22;;;;;;;2.73;1.53;;;;;;;3.41;100.00;97902.78;4942900;28;20074;-82
2023/01/17 13:17:52;;;;;;;2.23;1.30;;;;;;;3.43;100.00;97894.00;4974749;28;20043;-82
2023/01/17 13:20:25;;;;;;;2.27;1.40;;;;;;;3.49;100.00;97903.38;4941930;28;20492;-82